createdAt,value
2019-03-03T00:01:03.297Z,0.6
2019-03-03T00:02:12.794Z,0.4
2019-03-03T00:03:22.364Z,0.4
2019-03-03T00:04:31.834Z,0.4
2019-03-03T00:05:41.417Z,0.4
2019-03-03T00:06:50.934Z,0.5
2019-03-03T00:08:00.445Z,0.3
2019-03-03T00:09:09.956Z,0.5
2019-03-03T00:10:19.467Z,0.5
2019-03-03T00:11:28.986Z,0.6
2019-03-03T00:12:38.506Z,0.4
2019-03-03T00:13:48.040Z,0.6
2019-03-03T00:14:58.860Z,0.4
2019-03-03T00:16:08.354Z,0.9
2019-03-03T00:17:17.914Z,0.3
2019-03-03T00:18:27.536Z,0.4
2019-03-03T00:19:37.110Z,0.5
2019-03-03T00:20:46.724Z,0.4
2019-03-03T00:21:56.332Z,0.6
2019-03-03T00:23:05.925Z,0.6
2019-03-03T00:24:15.513Z,0.5
2019-03-03T00:25:25.114Z,0.5
2019-03-03T00:26:34.663Z,0.6
2019-03-03T00:27:44.247Z,0.4
2019-03-03T00:28:53.851Z,0.5
2019-03-03T00:30:03.413Z,0.6
2019-03-03T00:31:12.981Z,0.4
2019-03-03T00:32:22.559Z,0.4
2019-03-03T00:33:32.162Z,0.7
2019-03-03T00:34:41.746Z,0.4
2019-03-03T00:35:51.319Z,0.6
2019-03-03T00:37:00.899Z,0.4
2019-03-03T00:38:10.537Z,0.3
2019-03-03T00:39:20.092Z,0.4
2019-03-03T00:40:29.720Z,0.6
2019-03-03T00:41:39.319Z,0.9
2019-03-03T00:42:48.902Z,0.6
2019-03-03T00:43:58.466Z,0.5
2019-03-03T00:45:08.055Z,0.6
2019-03-03T00:46:17.638Z,0.6
2019-03-03T00:47:27.238Z,0.6
2019-03-03T00:48:36.857Z,0.5
2019-03-03T00:49:46.431Z,0.4
2019-03-03T00:50:56.045Z,0.7
2019-03-03T00:52:05.658Z,0.5
2019-03-03T00:53:15.287Z,0.3
2019-03-03T00:54:24.798Z,0.4
2019-03-03T00:55:34.311Z,0.5
2019-03-03T00:56:43.818Z,0.4
2019-03-03T00:57:53.348Z,0.6
2019-03-03T00:59:02.855Z,0.5
2019-03-03T01:00:12.350Z,0.5
2019-03-03T01:01:21.862Z,0.6
2019-03-03T01:02:31.367Z,0.5
2019-03-03T01:03:40.885Z,0.4
2019-03-03T01:04:50.388Z,0.6
2019-03-03T01:05:59.900Z,0.5
2019-03-03T01:07:09.423Z,0.4
2019-03-03T01:08:18.947Z,0.5
2019-03-03T01:09:28.457Z,0.6
2019-03-03T01:10:37.975Z,0.9
2019-03-03T01:11:47.484Z,0.6
2019-03-03T01:12:57.037Z,0.5
2019-03-03T01:14:06.537Z,0.6
2019-03-03T01:15:16.066Z,0.5
2019-03-03T01:16:25.580Z,0.4
2019-03-03T01:17:35.095Z,0.7
2019-03-03T01:18:44.621Z,0.5
2019-03-03T01:19:54.118Z,0.4
2019-03-03T01:21:03.629Z,0.7
2019-03-03T01:22:13.145Z,0.4
2019-03-03T01:23:22.663Z,0.5
2019-03-03T01:24:32.174Z,0.8
2019-03-03T01:25:41.679Z,0.5
2019-03-03T01:26:51.196Z,0.5
2019-03-03T01:28:00.730Z,0.3
2019-03-03T01:29:10.225Z,0.6
2019-03-03T01:30:19.742Z,0.5
2019-03-03T01:31:29.255Z,0.5
2019-03-03T01:32:38.758Z,0.7
2019-03-03T01:33:48.287Z,0.5
2019-03-03T01:34:57.803Z,0.7
2019-03-03T01:36:07.313Z,0.9
2019-03-03T01:37:16.828Z,0.5
2019-03-03T01:38:26.343Z,0.4
2019-03-03T01:39:35.858Z,0.7
2019-03-03T01:40:45.369Z,0.5
2019-03-03T01:41:54.876Z,0.7
2019-03-03T01:43:04.395Z,0.3
2019-03-03T01:44:13.911Z,0.4
2019-03-03T01:45:23.412Z,0.4
2019-03-03T01:46:32.937Z,0.6
2019-03-03T01:47:42.438Z,0.5
2019-03-03T01:48:51.974Z,0.4
2019-03-03T01:50:01.487Z,0.4
2019-03-03T01:51:11.002Z,0.6
2019-03-03T01:52:20.509Z,0.6
2019-03-03T01:53:30.034Z,0.9
2019-03-03T01:54:39.538Z,0.6
2019-03-03T01:55:49.043Z,0.5
2019-03-03T01:56:58.549Z,0.4
2019-03-03T01:58:08.061Z,0.5
2019-03-03T01:59:17.595Z,0.5
2019-03-03T02:00:27.122Z,0.4
2019-03-03T02:01:36.608Z,0.4
2019-03-03T02:02:46.113Z,0.5
2019-03-03T02:03:55.636Z,0.4
2019-03-03T02:05:05.145Z,0.5
2019-03-03T02:06:14.653Z,0.4
2019-03-03T02:07:24.161Z,0.5
2019-03-03T02:08:33.686Z,0.5
2019-03-03T02:09:43.255Z,0.3
2019-03-03T02:10:52.722Z,0.4
2019-03-03T02:12:02.249Z,0.5
2019-03-03T02:13:11.757Z,0.3
2019-03-03T02:14:21.271Z,0.8
2019-03-03T02:15:30.778Z,0.4
2019-03-03T02:16:40.291Z,0.4
2019-03-03T02:17:49.798Z,0.5
2019-03-03T02:18:59.316Z,0.5
2019-03-03T02:20:08.830Z,0.3
2019-03-03T02:21:18.360Z,0.7
2019-03-03T02:22:27.865Z,0.5
2019-03-03T02:23:37.395Z,0.7
2019-03-03T02:24:46.903Z,0.5
2019-03-03T02:25:56.410Z,0.6
2019-03-03T02:27:05.926Z,0.5
2019-03-03T02:28:15.502Z,0.4
2019-03-03T02:29:25.023Z,0.4
2019-03-03T02:30:34.539Z,0.5
2019-03-03T02:31:44.045Z,0.5
2019-03-03T02:32:53.567Z,0.7
2019-03-03T02:34:03.138Z,0.4
2019-03-03T02:35:12.642Z,0.2
2019-03-03T02:36:22.162Z,0.5
2019-03-03T02:37:31.677Z,0.4
2019-03-03T02:38:41.186Z,0.4
2019-03-03T02:39:50.721Z,0.4
2019-03-03T02:41:00.231Z,0.4
2019-03-03T02:42:09.746Z,0.8
2019-03-03T02:43:19.245Z,0.5
2019-03-03T02:44:28.804Z,0.5
2019-03-03T02:45:38.303Z,0.5
2019-03-03T02:46:47.809Z,0.4
2019-03-03T02:47:57.318Z,0.5
2019-03-03T02:49:06.837Z,0.4
2019-03-03T02:50:16.343Z,0.4
2019-03-03T02:51:25.858Z,0.3
2019-03-03T02:52:35.363Z,0.5
2019-03-03T02:53:44.886Z,0.6
2019-03-03T02:54:54.402Z,0.5
2019-03-03T02:56:03.933Z,0.6
2019-03-03T02:57:13.425Z,0.5
2019-03-03T02:58:22.961Z,0.5
2019-03-03T02:59:32.487Z,0.3
2019-03-03T03:00:41.984Z,0.5
2019-03-03T03:01:51.500Z,0.4
2019-03-03T03:03:01.006Z,0.3
2019-03-03T03:04:10.530Z,0.3
2019-03-03T03:05:20.146Z,0.4
2019-03-03T03:06:29.653Z,0.4
2019-03-03T03:07:39.158Z,0.3
2019-03-03T03:08:48.668Z,0.4
2019-03-03T03:09:58.186Z,0.6
2019-03-03T03:11:07.705Z,0.2
2019-03-03T03:12:17.206Z,0.5
2019-03-03T03:13:27.720Z,0.5
2019-03-03T03:14:37.256Z,0.6
2019-03-03T03:15:46.763Z,0.4
2019-03-03T03:16:56.272Z,0.3
2019-03-03T03:18:05.789Z,0.7
2019-03-03T03:19:15.312Z,0.5
2019-03-03T03:20:24.816Z,0.3
2019-03-03T03:21:34.318Z,0.5
2019-03-03T03:22:43.840Z,0.4
2019-03-03T03:23:53.362Z,0.2
2019-03-03T03:25:02.878Z,0.4
2019-03-03T03:26:12.406Z,0.3
2019-03-03T03:27:21.921Z,0.5
2019-03-03T03:28:31.436Z,0.3
2019-03-03T03:29:40.960Z,0.6
2019-03-03T03:30:50.463Z,0.3
2019-03-03T03:31:59.967Z,0.5
2019-03-03T03:33:09.487Z,0.3
2019-03-03T03:34:18.994Z,0.3
2019-03-03T03:35:28.504Z,0.3
2019-03-03T03:36:38.024Z,0.4
2019-03-03T03:37:47.547Z,0.5
2019-03-03T03:38:57.046Z,0.4
2019-03-03T03:40:06.555Z,0.5
2019-03-03T03:41:16.073Z,0.4
2019-03-03T03:42:25.596Z,0.4
2019-03-03T03:43:35.111Z,0.3
2019-03-03T03:44:44.623Z,0.6
2019-03-03T03:45:54.146Z,0.2
2019-03-03T03:47:03.683Z,0.4
2019-03-03T03:48:13.193Z,0.4
2019-03-03T03:49:22.700Z,0.5
2019-03-03T03:50:32.211Z,0.2
2019-03-03T03:51:42.757Z,0.2
2019-03-03T03:52:52.273Z,0.4
2019-03-03T03:54:01.783Z,0.5
2019-03-03T03:55:11.290Z,0.3
2019-03-03T03:56:20.824Z,0.5
2019-03-03T03:57:30.342Z,0.3
2019-03-03T03:58:39.851Z,0.3
2019-03-03T03:59:49.555Z,0.5
2019-03-03T04:00:59.065Z,0.4
2019-03-03T04:02:08.593Z,0.4
2019-03-03T04:03:18.096Z,0.2
2019-03-03T04:04:27.601Z,0.2
2019-03-03T04:05:37.103Z,0.4
2019-03-03T04:06:46.615Z,0.3
2019-03-03T04:07:56.153Z,0.3
2019-03-03T04:09:05.650Z,0.3
2019-03-03T04:10:15.166Z,0.4
2019-03-03T04:11:24.670Z,0.2
2019-03-03T04:12:34.187Z,0.4
2019-03-03T04:13:43.683Z,0.3
2019-03-03T04:14:53.195Z,0.4
2019-03-03T04:16:02.703Z,0.4
2019-03-03T04:17:12.483Z,0.1
2019-03-03T04:18:21.970Z,0.4
2019-03-03T04:19:31.493Z,0.4
2019-03-03T04:20:40.979Z,0.6
2019-03-03T04:21:50.497Z,0.5
2019-03-03T04:23:00.019Z,0.6
2019-03-03T04:24:09.526Z,0.5
2019-03-03T04:25:19.040Z,0.6
2019-03-03T04:26:29.558Z,0.5
2019-03-03T04:27:39.080Z,0.7
2019-03-03T04:28:48.587Z,0.5
2019-03-03T04:29:58.095Z,0.4
2019-03-03T04:31:07.607Z,0.5
2019-03-03T04:32:17.115Z,0.5
2019-03-03T04:33:26.645Z,0.4
2019-03-03T04:34:36.148Z,0.4
2019-03-03T04:35:45.659Z,0.3
2019-03-03T04:36:55.169Z,0.5
2019-03-03T04:38:04.697Z,0.3
2019-03-03T04:39:14.212Z,0.2
2019-03-03T04:40:23.718Z,0.6
2019-03-03T04:41:33.227Z,0.3
2019-03-03T04:42:42.748Z,0.5
2019-03-03T04:43:52.257Z,0.3
2019-03-03T04:45:01.817Z,0.5
2019-03-03T04:46:11.329Z,0.2
2019-03-03T04:47:20.843Z,0.2
2019-03-03T04:48:30.364Z,0.6
2019-03-03T04:49:39.874Z,0.2
2019-03-03T04:50:49.407Z,0.3
2019-03-03T04:51:58.917Z,0.4
2019-03-03T04:53:08.442Z,0.3
2019-03-03T04:54:17.952Z,0.5
2019-03-03T04:55:27.463Z,0.7
2019-03-03T04:56:36.976Z,0.3
2019-03-03T04:57:46.518Z,0.3
2019-03-03T04:58:56.022Z,0.5
2019-03-03T05:00:05.531Z,0.4
2019-03-03T05:01:15.038Z,0.3
2019-03-03T05:02:24.555Z,0.5
2019-03-03T05:03:34.079Z,0.5
2019-03-03T05:04:43.586Z,0.4
2019-03-03T05:05:53.094Z,0.3
2019-03-03T05:07:02.590Z,0.4
2019-03-03T05:08:12.119Z,0.4
2019-03-03T05:09:21.654Z,0.4
2019-03-03T05:10:31.166Z,0.4
2019-03-03T05:11:40.675Z,0.4
2019-03-03T05:12:50.186Z,0.4
2019-03-03T05:13:59.695Z,0.3
2019-03-03T05:15:09.209Z,0.3
2019-03-03T05:16:18.721Z,0.5
2019-03-03T05:17:28.276Z,0.5
2019-03-03T05:18:37.815Z,0.5
2019-03-03T05:19:47.322Z,0.4
2019-03-03T05:20:56.829Z,0.4
2019-03-03T05:22:06.349Z,0.3
2019-03-03T05:23:15.883Z,0.3
2019-03-03T05:24:33.840Z,0.4
2019-03-03T05:25:35.888Z,0.2
2019-03-03T05:26:45.395Z,0.3
2019-03-03T05:27:54.928Z,0.3
2019-03-03T05:29:04.433Z,0.3
2019-03-03T05:30:13.939Z,0.3
2019-03-03T05:31:23.444Z,0.4
2019-03-03T05:32:32.952Z,0.4
2019-03-03T05:33:42.483Z,0.4
2019-03-03T05:34:52.000Z,0.2
2019-03-03T05:36:01.500Z,0.3
2019-03-03T05:37:11.008Z,0.4
2019-03-03T05:38:20.518Z,0.2
2019-03-03T05:39:30.020Z,0.2
2019-03-03T05:40:39.528Z,0.2
2019-03-03T05:41:49.048Z,0.1
2019-03-03T05:42:58.572Z,0.1
2019-03-03T05:44:08.080Z,0.4
2019-03-03T05:45:17.581Z,0.4
2019-03-03T05:46:27.086Z,0.2
2019-03-03T05:47:36.635Z,0.3
2019-03-03T05:48:46.162Z,0.2
2019-03-03T05:49:55.705Z,0.2
2019-03-03T05:51:05.228Z,0.3
2019-03-03T05:52:14.738Z,0.3
2019-03-03T05:53:24.261Z,0.3
2019-03-03T05:54:33.759Z,0.2
2019-03-03T05:55:43.267Z,0.2
2019-03-03T05:56:52.779Z,0.1
2019-03-03T05:58:02.289Z,0.3
2019-03-03T05:59:11.823Z,0.3
2019-03-03T06:00:21.324Z,0.2
2019-03-03T06:01:30.832Z,0.3
2019-03-03T06:02:40.342Z,0.3
2019-03-03T06:03:49.869Z,0.2
2019-03-03T06:04:59.379Z,0.4
2019-03-03T06:06:08.876Z,0.4
2019-03-03T06:07:18.387Z,0.3
2019-03-03T06:08:27.910Z,0.2
2019-03-03T06:09:37.404Z,0.2
2019-03-03T06:10:46.925Z,0.2
2019-03-03T06:11:56.431Z,0.4
2019-03-03T06:13:05.941Z,0.2
2019-03-03T06:14:15.465Z,0.3
2019-03-03T06:15:24.982Z,0.4
2019-03-03T06:16:34.484Z,0.3
2019-03-03T06:17:44.006Z,0.3
2019-03-03T06:18:53.525Z,0.4
2019-03-03T06:20:03.028Z,0.1
2019-03-03T06:21:12.521Z,0.1
2019-03-03T06:22:22.028Z,0.7
2019-03-03T06:23:31.561Z,0.1
2019-03-03T06:24:41.072Z,0.3
2019-03-03T06:25:50.583Z,0.3
2019-03-03T06:27:00.093Z,0.3
2019-03-03T06:28:09.618Z,0.6
2019-03-03T06:29:19.141Z,0.3
2019-03-03T06:30:28.645Z,0.4
2019-03-03T06:31:38.161Z,0.2
2019-03-03T06:32:47.672Z,0.2
2019-03-03T06:33:57.196Z,0.3
2019-03-03T06:35:06.765Z,0.3
2019-03-03T06:36:16.238Z,0.2
2019-03-03T06:37:25.744Z,0.3
2019-03-03T06:38:35.274Z,0.3
2019-03-03T06:39:44.780Z,0.2
2019-03-03T06:40:54.289Z,0.3
2019-03-03T06:42:03.806Z,0.5
2019-03-03T06:43:14.301Z,0.3
2019-03-03T06:44:23.826Z,0.3
2019-03-03T06:45:33.347Z,0.1
2019-03-03T06:46:42.856Z,0.4
2019-03-03T06:47:52.371Z,0.2
2019-03-03T06:49:01.903Z,0.3
2019-03-03T06:50:11.418Z,0.1
2019-03-03T06:51:20.946Z,0.3
2019-03-03T06:52:30.441Z,0.2
2019-03-03T06:53:39.966Z,0.2
2019-03-03T06:54:49.484Z,0.3
2019-03-03T06:55:59.647Z,0.2
2019-03-03T06:57:09.155Z,0.2
2019-03-03T06:58:18.664Z,0.2
2019-03-03T06:59:28.185Z,0.3
2019-03-03T07:00:37.696Z,0.3
2019-03-03T07:01:47.201Z,0.2
2019-03-03T07:02:56.716Z,0.2
2019-03-03T07:04:06.261Z,0.1
2019-03-03T07:05:15.772Z,0.3
2019-03-03T07:06:25.295Z,0.2
2019-03-03T07:07:34.799Z,0.3
2019-03-03T07:08:44.325Z,0.3
2019-03-03T07:09:53.857Z,0.2
2019-03-03T07:11:03.370Z,0.6
2019-03-03T07:12:12.881Z,0.3
2019-03-03T07:13:22.379Z,0.4
2019-03-03T07:14:31.907Z,0.3
2019-03-03T07:15:41.419Z,0.3
2019-03-03T07:16:50.926Z,0.3
2019-03-03T07:18:00.437Z,0.2
2019-03-03T07:19:09.964Z,0.3
2019-03-03T07:20:19.463Z,0.3
2019-03-03T07:21:28.978Z,0.1
2019-03-03T07:22:38.491Z,0.2
2019-03-03T07:23:48.005Z,0.4
2019-03-03T07:24:57.517Z,0.4
2019-03-03T07:26:07.025Z,0.2
2019-03-03T07:27:16.532Z,0.4
2019-03-03T07:28:26.034Z,0.2
2019-03-03T07:29:36.550Z,0.3
2019-03-03T07:30:46.056Z,0.3
2019-03-03T07:31:55.576Z,0.3
2019-03-03T07:33:05.077Z,0.3
2019-03-03T07:34:14.596Z,0.3
2019-03-03T07:35:24.098Z,0.3
2019-03-03T07:36:33.627Z,0.2
2019-03-03T07:37:43.133Z,0.2
2019-03-03T07:38:52.639Z,0.1
2019-03-03T07:40:02.162Z,0.2
2019-03-03T07:41:11.671Z,0.2
2019-03-03T07:42:21.178Z,0.2
2019-03-03T07:43:30.682Z,0.2
2019-03-03T07:44:40.210Z,0.1
2019-03-03T07:45:49.716Z,0.3
2019-03-03T07:46:59.235Z,0.4
2019-03-03T07:48:08.744Z,0.2
2019-03-03T07:49:18.280Z,0.2
2019-03-03T07:50:27.778Z,0.1
2019-03-03T07:51:37.289Z,0.1
2019-03-03T07:52:46.808Z,0.2
2019-03-03T07:53:56.314Z,0.4
2019-03-03T07:55:05.834Z,0.2
2019-03-03T07:56:15.364Z,0.2
2019-03-03T07:57:24.874Z,0.2
2019-03-03T07:58:34.447Z,0.2
2019-03-03T07:59:43.924Z,0.2
2019-03-03T08:00:53.433Z,0.3
2019-03-03T08:02:02.954Z,0.2
2019-03-03T08:03:12.486Z,0.2
2019-03-03T08:04:22.006Z,0.1
2019-03-03T08:05:31.528Z,0.1
2019-03-03T08:06:41.036Z,0.2
2019-03-03T08:07:50.553Z,0.3
2019-03-03T08:09:00.062Z,0.3
2019-03-03T08:10:09.580Z,0.2
2019-03-03T08:11:19.089Z,0
2019-03-03T08:12:28.590Z,0.1
2019-03-03T08:13:38.103Z,0.2
2019-03-03T08:14:47.619Z,0.1
2019-03-03T08:15:57.140Z,0.1
2019-03-03T08:17:06.660Z,0.2
2019-03-03T08:18:16.172Z,0.2
2019-03-03T08:19:25.673Z,0.2
2019-03-03T08:20:35.205Z,0.2
2019-03-03T08:21:44.711Z,0.1
2019-03-03T08:22:54.210Z,0.2
2019-03-03T08:24:03.744Z,0.2
2019-03-03T08:25:13.293Z,0.1
2019-03-03T08:26:22.792Z,0.4
2019-03-03T08:27:32.311Z,0.1
2019-03-03T08:28:41.841Z,0.1
2019-03-03T08:29:51.371Z,0.2
2019-03-03T08:31:00.873Z,0.2
2019-03-03T08:32:10.374Z,0.2
2019-03-03T08:33:19.977Z,0.1
2019-03-03T08:34:29.496Z,0.1
2019-03-03T08:35:39.016Z,0.2
2019-03-03T08:36:48.530Z,0.1
2019-03-03T08:37:58.028Z,0.1
2019-03-03T08:39:07.542Z,0.2
2019-03-03T08:40:17.112Z,0.1
2019-03-03T08:41:26.639Z,0.1
2019-03-03T08:42:36.162Z,0.2
2019-03-03T08:43:45.665Z,0.2
2019-03-03T08:44:55.219Z,0.1
2019-03-03T08:46:04.745Z,0.1
2019-03-03T08:47:14.247Z,0.2
2019-03-03T08:48:23.754Z,0.2
2019-03-03T08:49:33.340Z,0.1
2019-03-03T08:50:42.889Z,0.2
2019-03-03T08:51:52.398Z,0.1
2019-03-03T08:53:01.918Z,0.2
2019-03-03T08:54:11.439Z,0.1
2019-03-03T08:55:21.005Z,0.1
2019-03-03T08:56:30.505Z,0.1
2019-03-03T08:57:40.022Z,0.2
2019-03-03T08:58:49.535Z,0.2
2019-03-03T08:59:59.035Z,0.3
2019-03-03T09:01:08.555Z,0.2
2019-03-03T09:02:18.058Z,0.1
2019-03-03T09:03:27.566Z,0
2019-03-03T09:04:37.079Z,0.1
2019-03-03T09:05:46.583Z,0.2
2019-03-03T09:06:56.091Z,0.2
2019-03-03T09:08:05.596Z,0.1
2019-03-03T09:09:15.114Z,0.1
2019-03-03T09:10:25.465Z,0.3
2019-03-03T09:11:35.138Z,0.4
2019-03-03T09:12:44.639Z,0.3
2019-03-03T09:13:54.160Z,0.2
2019-03-03T09:15:03.684Z,0.2
2019-03-03T09:16:13.220Z,0.2
2019-03-03T09:17:22.787Z,0.1
2019-03-03T09:18:32.269Z,0.2
2019-03-03T09:19:41.768Z,0.1
2019-03-03T09:20:51.297Z,0.2
2019-03-03T09:22:00.804Z,0.2
2019-03-03T09:23:10.321Z,0.3
2019-03-03T09:24:19.824Z,0.1
2019-03-03T09:25:29.361Z,0.3
2019-03-03T09:26:38.867Z,0.2
2019-03-03T09:27:48.371Z,0.1
2019-03-03T09:28:57.877Z,0.2
2019-03-03T09:30:07.381Z,0.1
2019-03-03T09:31:16.906Z,0.1
2019-03-03T09:32:26.401Z,0.2
2019-03-03T09:33:36.806Z,0.1
2019-03-03T09:34:45.466Z,0.2
2019-03-03T09:35:54.995Z,0.1
2019-03-03T09:37:04.496Z,0.4
2019-03-03T09:38:14.025Z,0
2019-03-03T09:39:24.513Z,0.1
2019-03-03T09:40:34.031Z,0.2
2019-03-03T09:41:43.553Z,0.2
2019-03-03T09:42:53.075Z,0.2
2019-03-03T09:44:02.570Z,0.3
2019-03-03T09:45:12.075Z,0.1
2019-03-03T09:46:21.598Z,0.2
2019-03-03T09:47:31.099Z,0.1
2019-03-03T09:48:40.603Z,0.3
2019-03-03T09:49:50.105Z,0.1
2019-03-03T09:50:59.624Z,0.2
2019-03-03T09:52:09.149Z,0.2
2019-03-03T09:53:18.635Z,0.2
2019-03-03T09:54:28.151Z,0.2
2019-03-03T09:55:37.652Z,0.2
2019-03-03T09:56:47.164Z,0.1
2019-03-03T09:57:56.679Z,0.2
2019-03-03T09:59:06.181Z,0.1
2019-03-03T10:00:15.687Z,0.4
2019-03-03T10:01:25.312Z,0.3
2019-03-03T10:02:34.817Z,0.1
2019-03-03T10:03:44.328Z,0.2
2019-03-03T10:04:53.838Z,0.1
2019-03-03T10:06:03.375Z,0.2
2019-03-03T10:07:13.652Z,0.2
2019-03-03T10:08:22.402Z,0.2
2019-03-03T10:09:31.918Z,0.1
2019-03-03T10:10:41.418Z,0.1
2019-03-03T10:11:50.943Z,0.2
2019-03-03T10:13:00.464Z,0.2
2019-03-03T10:14:09.970Z,0.2
2019-03-03T10:15:19.482Z,0.2
2019-03-03T10:16:29.005Z,0.3
2019-03-03T10:17:38.504Z,0.1
2019-03-03T10:18:48.013Z,0.2
2019-03-03T10:19:57.525Z,0.2
2019-03-03T10:21:07.045Z,0.2
2019-03-03T10:22:16.566Z,0.1
2019-03-03T10:23:26.071Z,0.1
2019-03-03T10:24:35.575Z,0.1
2019-03-03T10:25:45.082Z,0.2
2019-03-03T10:26:54.607Z,0.2
2019-03-03T10:28:04.122Z,0.1
2019-03-03T10:29:13.630Z,0.2
2019-03-03T10:30:23.134Z,0.1
2019-03-03T10:31:32.681Z,0.1
2019-03-03T10:32:42.190Z,0.2
2019-03-03T10:33:51.708Z,0.2
2019-03-03T10:35:01.206Z,0
2019-03-03T10:36:10.712Z,0.1
2019-03-03T10:37:20.248Z,0.5
2019-03-03T10:38:36.008Z,0.1
2019-03-03T10:39:40.244Z,0.1
2019-03-03T10:40:49.750Z,0.1
2019-03-03T10:41:59.286Z,0.1
2019-03-03T10:43:08.812Z,0.2
2019-03-03T10:44:18.313Z,0.1
2019-03-03T10:45:27.823Z,0.1
2019-03-03T10:46:37.330Z,0.1
2019-03-03T10:47:46.855Z,0.2
2019-03-03T10:48:56.360Z,0.1
2019-03-03T10:50:05.862Z,0.1
2019-03-03T10:51:15.380Z,0.2
2019-03-03T10:52:24.902Z,0.1
2019-03-03T10:53:34.409Z,0
2019-03-03T10:54:43.918Z,0.1
2019-03-03T10:55:53.426Z,0.1
2019-03-03T10:57:02.979Z,0.1
2019-03-03T10:58:12.482Z,0.1
2019-03-03T10:59:22.028Z,0.1
2019-03-03T11:00:31.528Z,0.1
2019-03-03T11:01:41.046Z,0.1
2019-03-03T11:02:50.582Z,0.2
2019-03-03T11:04:00.089Z,0.1
2019-03-03T11:05:09.593Z,0
2019-03-03T11:06:19.090Z,0.1
2019-03-03T11:07:28.612Z,0.2
2019-03-03T11:08:38.119Z,0.2
2019-03-03T11:09:47.631Z,0.1
2019-03-03T11:10:57.659Z,0.1
2019-03-03T11:12:06.668Z,0.1
2019-03-03T11:13:16.196Z,0.1
2019-03-03T11:14:25.697Z,0.1
2019-03-03T11:15:35.205Z,0
2019-03-03T11:16:44.723Z,0.1
2019-03-03T11:17:54.257Z,0.1
2019-03-03T11:19:03.764Z,0.1
2019-03-03T11:20:13.274Z,0
2019-03-03T11:21:22.781Z,0.2
2019-03-03T11:22:32.324Z,0.5
2019-03-03T11:23:41.833Z,0.2
2019-03-03T11:24:51.326Z,0.1
2019-03-03T11:26:00.826Z,0.1
2019-03-03T11:27:10.357Z,0.1
2019-03-03T11:28:23.668Z,0.2
2019-03-03T11:29:30.331Z,0.2
2019-03-03T11:30:39.816Z,0.2
2019-03-03T11:31:49.326Z,0.1
2019-03-03T11:32:58.880Z,0.2
2019-03-03T11:34:08.380Z,0.2
2019-03-03T11:35:17.888Z,0.3
2019-03-03T11:36:27.427Z,0.2
2019-03-03T11:37:36.965Z,0.2
2019-03-03T11:38:47.459Z,0.1
2019-03-03T11:39:56.961Z,0.1
2019-03-03T11:41:06.471Z,0
2019-03-03T11:42:16.061Z,0.1
2019-03-03T11:43:25.593Z,0.1
2019-03-03T11:44:35.254Z,0.2
2019-03-03T11:45:44.762Z,0.1
2019-03-03T11:46:54.270Z,0
2019-03-03T11:48:04.563Z,0.1
2019-03-03T11:49:13.293Z,0
2019-03-03T11:50:22.817Z,0.1
2019-03-03T11:51:32.358Z,0.2
2019-03-03T11:52:41.925Z,0.1
2019-03-03T11:53:51.504Z,0.2
2019-03-03T11:55:01.303Z,0.1
2019-03-03T11:56:10.523Z,0.1
2019-03-03T11:57:21.712Z,0.1
2019-03-03T11:58:30.695Z,0.1
2019-03-03T11:59:40.218Z,0.2
2019-03-03T12:00:49.727Z,0.1
2019-03-03T12:01:59.240Z,0.1
2019-03-03T12:03:08.828Z,0.1
2019-03-03T12:04:18.381Z,0
2019-03-03T12:05:27.894Z,0.1
2019-03-03T12:06:37.405Z,0.2
2019-03-03T12:07:46.929Z,0.1
2019-03-03T12:08:56.451Z,0.1
2019-03-03T12:10:05.974Z,0.1
2019-03-03T12:11:15.471Z,0.2
2019-03-03T12:12:24.980Z,0.2
2019-03-03T12:13:34.514Z,0.2
2019-03-03T12:14:44.021Z,0.1
2019-03-03T12:15:53.552Z,0.2
2019-03-03T12:17:03.059Z,0.1
2019-03-03T12:18:12.611Z,0.2
2019-03-03T12:19:22.300Z,0.1
2019-03-03T12:20:31.811Z,0.1
2019-03-03T12:21:41.328Z,0.1
2019-03-03T12:22:50.859Z,0.2
2019-03-03T12:24:00.377Z,0.1
2019-03-03T12:25:09.900Z,0.1
2019-03-03T12:26:19.419Z,0.1
2019-03-03T12:27:28.931Z,0
2019-03-03T12:28:38.482Z,0.1
2019-03-03T12:29:47.988Z,0.1
2019-03-03T12:30:57.500Z,0.1
2019-03-03T12:32:07.011Z,0.1
2019-03-03T12:33:16.567Z,0.2
2019-03-03T12:34:26.111Z,0.2
2019-03-03T12:35:35.608Z,0.1
2019-03-03T12:36:45.175Z,0.1
2019-03-03T12:37:54.754Z,0.3
2019-03-03T12:39:04.295Z,0.1
2019-03-03T12:40:13.806Z,0.1
2019-03-03T12:41:23.318Z,0.2
2019-03-03T12:42:32.830Z,0.2
2019-03-03T12:43:42.365Z,0.1
2019-03-03T12:44:51.883Z,0.2
2019-03-03T12:46:01.418Z,0.2
2019-03-03T12:47:10.924Z,0.1
2019-03-03T12:48:20.507Z,0.2
2019-03-03T12:49:30.019Z,0.1
2019-03-03T12:50:39.542Z,0.2
2019-03-03T12:51:49.051Z,0.2
2019-03-03T12:52:58.627Z,0.3
2019-03-03T12:54:08.142Z,0.1
2019-03-03T12:55:17.658Z,0.2
2019-03-03T12:56:27.162Z,0.1
2019-03-03T12:57:36.697Z,0.1
2019-03-03T12:58:46.236Z,0.1
2019-03-03T12:59:55.771Z,0.2
2019-03-03T13:01:05.275Z,0.2
2019-03-03T13:02:14.784Z,0.2
2019-03-03T13:03:24.317Z,0.1
2019-03-03T13:04:33.844Z,0.1
2019-03-03T13:05:43.365Z,0.1
2019-03-03T13:06:52.888Z,0.1
2019-03-03T13:08:02.454Z,0.1
2019-03-03T13:09:12.011Z,0.1
2019-03-03T13:10:21.520Z,0.1
2019-03-03T13:11:31.036Z,0.2
2019-03-03T13:12:40.587Z,0.1
2019-03-03T13:13:50.128Z,0.2
2019-03-03T13:14:59.676Z,0.4
2019-03-03T13:16:09.202Z,0.6
2019-03-03T13:17:18.722Z,0.2
2019-03-03T13:18:28.334Z,0.2
2019-03-03T13:19:37.903Z,0.4
2019-03-03T13:20:47.439Z,0.1
2019-03-03T13:21:56.951Z,0.3
2019-03-03T13:23:06.464Z,0.2
2019-03-03T13:24:16.002Z,0.1
2019-03-03T13:25:25.534Z,0.1
2019-03-03T13:26:35.057Z,0.1
2019-03-03T13:27:44.583Z,0.1
2019-03-03T13:28:54.173Z,0.1
2019-03-03T13:30:03.726Z,0.2
2019-03-03T13:31:13.281Z,0.2
2019-03-03T13:32:22.804Z,0.1
2019-03-03T13:33:32.351Z,0.1
2019-03-03T13:34:41.878Z,0.1
2019-03-03T13:35:51.439Z,0.1
2019-03-03T13:37:00.957Z,0.2
2019-03-03T13:38:10.463Z,0.2
2019-03-03T13:39:20.023Z,0.3
2019-03-03T13:40:29.739Z,0.2
2019-03-03T13:41:39.267Z,0.1
2019-03-03T13:42:48.763Z,0.1
2019-03-03T13:43:58.335Z,0.2
2019-03-03T13:45:07.887Z,0.1
2019-03-03T13:46:17.405Z,0.2
2019-03-03T13:47:26.951Z,0.1
2019-03-03T13:48:36.479Z,0.1
2019-03-03T13:49:46.022Z,0.1
2019-03-03T13:50:55.538Z,0.1
2019-03-03T13:52:05.076Z,0.1
2019-03-03T13:53:14.597Z,0.1
2019-03-03T13:54:24.190Z,0.1
2019-03-03T13:55:33.728Z,0.1
2019-03-03T13:56:43.316Z,0.4
2019-03-03T13:57:52.834Z,0.1
2019-03-03T13:59:02.373Z,0.2
2019-03-03T14:00:11.894Z,0.2
2019-03-03T14:01:21.402Z,0.1
2019-03-03T14:02:31.027Z,0.1
2019-03-03T14:03:40.557Z,0.1
2019-03-03T14:04:50.175Z,0
2019-03-03T14:05:59.691Z,0.2
2019-03-03T14:07:09.212Z,0.1
2019-03-03T14:08:18.773Z,0.1
2019-03-03T14:09:28.323Z,0.1
2019-03-03T14:10:37.852Z,0.1
2019-03-03T14:11:47.391Z,0.1
2019-03-03T14:12:56.923Z,0.2
2019-03-03T14:14:06.525Z,0.1
2019-03-03T14:15:16.049Z,0.1
2019-03-03T14:16:25.588Z,0.1
2019-03-03T14:17:35.111Z,0.1
2019-03-03T14:18:44.704Z,0.2
2019-03-03T14:19:54.245Z,0.1
2019-03-03T14:21:03.761Z,0.1
2019-03-03T14:22:13.302Z,0.3
2019-03-03T14:23:22.831Z,0.3
2019-03-03T14:24:32.380Z,0.1
2019-03-03T14:25:41.883Z,0.1
2019-03-03T14:26:51.406Z,0.1
2019-03-03T14:28:01.023Z,0.1
2019-03-03T14:29:10.599Z,0.2
2019-03-03T14:30:20.141Z,0.1
2019-03-03T14:31:29.647Z,0.2
2019-03-03T14:32:39.207Z,0.2
2019-03-03T14:33:48.719Z,0
2019-03-03T14:34:58.271Z,0.2
2019-03-03T14:36:07.809Z,0.1
2019-03-03T14:37:17.353Z,0
2019-03-03T14:38:26.866Z,0.1
2019-03-03T14:39:37.111Z,0.1
2019-03-03T14:40:46.974Z,0.1
2019-03-03T14:41:56.489Z,0.1
2019-03-03T14:43:06.020Z,0.3
2019-03-03T14:44:15.557Z,0.2
2019-03-03T14:45:25.097Z,0.1
2019-03-03T14:46:34.604Z,0
2019-03-03T14:47:44.127Z,0.2
2019-03-03T14:48:53.650Z,0.2
2019-03-03T14:50:03.237Z,0.2
2019-03-03T14:51:12.761Z,0.1
2019-03-03T14:52:22.290Z,0.4
2019-03-03T14:53:31.809Z,0.2
2019-03-03T14:54:41.347Z,0.1
2019-03-03T14:55:50.867Z,0.1
2019-03-03T14:57:00.389Z,0.1
2019-03-03T14:58:09.903Z,0.3
2019-03-03T14:59:19.435Z,0.2
2019-03-03T15:00:28.976Z,0.2
2019-03-03T15:01:38.494Z,0.1
2019-03-03T15:02:48.021Z,0.1
2019-03-03T15:03:57.555Z,0.2
2019-03-03T15:05:07.120Z,0.2
2019-03-03T15:06:24.111Z,0.1
2019-03-03T15:07:26.147Z,0.2
2019-03-03T15:08:35.657Z,0.3
2019-03-03T15:09:45.215Z,0.2
2019-03-03T15:10:54.781Z,0.2
2019-03-03T15:12:04.293Z,0.1
2019-03-03T15:13:15.917Z,0.1
2019-03-03T15:14:24.329Z,0.1
2019-03-03T15:15:33.872Z,0.1
2019-03-03T15:16:43.410Z,0.1
2019-03-03T15:17:52.922Z,0.1
2019-03-03T15:19:02.444Z,0.1
2019-03-03T15:20:12.019Z,0.2
2019-03-03T15:21:24.917Z,0.1
2019-03-03T15:22:32.064Z,0.2
2019-03-03T15:23:41.583Z,0.1
2019-03-03T15:24:51.131Z,0.1
2019-03-03T15:26:00.649Z,0.2
2019-03-03T15:27:10.201Z,0.2
2019-03-03T15:28:19.725Z,0.1
2019-03-03T15:29:29.254Z,0.1
2019-03-03T15:30:38.795Z,0
2019-03-03T15:31:48.325Z,0.1
2019-03-03T15:32:57.853Z,0.2
2019-03-03T15:34:07.383Z,0
2019-03-03T15:35:16.964Z,0.2
2019-03-03T15:36:26.588Z,0.2
2019-03-03T15:37:36.100Z,0.1
2019-03-03T15:38:45.656Z,0.1
2019-03-03T15:39:55.162Z,0.1
2019-03-03T15:41:04.706Z,0
2019-03-03T15:42:14.247Z,0.1
2019-03-03T15:43:23.772Z,0.1
2019-03-03T15:44:33.305Z,0.1
2019-03-03T15:45:42.840Z,0.1
2019-03-03T15:46:52.360Z,0.1
2019-03-03T15:48:01.926Z,0.1
2019-03-03T15:49:11.448Z,0.2
2019-03-03T15:50:21.018Z,0.2
2019-03-03T15:51:30.546Z,0.2
2019-03-03T15:52:40.062Z,0.1
2019-03-03T15:53:50.568Z,0
2019-03-03T15:55:00.096Z,0.1
2019-03-03T15:56:09.644Z,0.2
2019-03-03T15:57:19.151Z,0.2
2019-03-03T15:58:28.680Z,0.2
2019-03-03T15:59:38.208Z,0.1